Bartelso, Illinois
Current Conditions -  °F | °C
As of 7:15 PM on Tuesday 21 Oct 2014 (Local Time) from KENL Reporting Station
Clear Clear  
Wind Chill: 13°   Ceiling: Unl
Heat Index: 13°   Visibility: 10mi
Dew Point:   Wind: 3mph
Humidity: 57%   Direction: 30°NNE
Pressure: 30.14"   Gusts: NA
Location:  38.54°N, 89.47°W
Report Text: KENL 220015Z AUTO 03003KT 10SM CLR 13/05 A3014 RMK AO2 T01290046
Loading
Personal Weather Stations






























Interactive Weather Map
Tropical Storm Tracking
New forecast layout! Learn more

10-Day Weather Forecast

Advertisements
Track Severe Weather on mobile